createdAt,value
2019-03-29T00:01:14.607Z,7.30
2019-03-29T00:03:43.964Z,7.30
2019-03-29T00:06:15.443Z,7.30
2019-03-29T00:08:49.586Z,7.20
2019-03-29T00:11:22.308Z,7.20
2019-03-29T00:13:55.728Z,7.20
2019-03-29T00:16:28.211Z,7.20
2019-03-29T00:18:59.477Z,7.20
2019-03-29T00:21:32.136Z,7.10
2019-03-29T00:24:07.083Z,7.10
2019-03-29T00:26:37.477Z,7.00
2019-03-29T00:29:09.157Z,7.10
2019-03-29T00:31:40.090Z,7.00
2019-03-29T00:34:13.156Z,7.00
2019-03-29T00:36:46.312Z,7.00
2019-03-29T00:39:19.245Z,7.00
2019-03-29T00:41:50.298Z,7.00
2019-03-29T00:44:26.965Z,7.00
2019-03-29T00:47:01.109Z,7.00
2019-03-29T00:49:33.458Z,7.00
2019-03-29T00:52:07.567Z,7.00
2019-03-29T00:54:40.490Z,7.00
2019-03-29T00:57:13.292Z,7.00
2019-03-29T00:59:49.289Z,7.10
2019-03-29T01:02:22.459Z,7.10
2019-03-29T01:04:56.755Z,7.20
2019-03-29T01:07:27.574Z,7.20
2019-03-29T01:09:57.877Z,7.20
2019-03-29T01:12:30.697Z,7.20
2019-03-29T01:15:03.419Z,7.30
2019-03-29T01:17:35.196Z,7.30
2019-03-29T01:20:08.392Z,7.20
2019-03-29T01:22:41.707Z,7.30
2019-03-29T01:25:14.309Z,7.20
2019-03-29T01:27:46.317Z,7.20
2019-03-29T01:30:18.400Z,7.20
2019-03-29T01:32:54.237Z,7.10
2019-03-29T01:35:25.898Z,7.10
2019-03-29T01:38:00.145Z,7.10
2019-03-29T01:40:35.576Z,7.10
2019-03-29T01:43:10.076Z,7.10
2019-03-29T01:45:42.996Z,7.10
2019-03-29T01:48:16.681Z,7.10
2019-03-29T01:50:49.689Z,7.00
2019-03-29T01:53:19.787Z,7.00
2019-03-29T01:55:51.438Z,7.00
2019-03-29T01:58:21.886Z,7.00
2019-03-29T02:00:50.833Z,7.00
2019-03-29T02:03:24.785Z,7.00
2019-03-29T02:05:54.540Z,7.00
2019-03-29T02:08:35.518Z,7.00
2019-03-29T02:11:00.819Z,7.00
2019-03-29T02:13:31.532Z,7.00
2019-03-29T02:16:01.724Z,7.00
2019-03-29T02:18:34.598Z,7.00
2019-03-29T02:21:07.321Z,7.00
2019-03-29T02:23:38.564Z,7.00
2019-03-29T02:26:08.940Z,7.00
2019-03-29T02:28:40.975Z,7.00
2019-03-29T02:31:15.638Z,7.00
2019-03-29T02:33:48.676Z,7.00
2019-03-29T02:36:21.581Z,7.00
2019-03-29T02:38:56.394Z,7.00
2019-03-29T02:41:30.918Z,7.10
2019-03-29T02:44:06.572Z,7.00
2019-03-29T02:46:40.969Z,7.00
2019-03-29T02:49:13.788Z,7.00
2019-03-29T02:51:45.481Z,7.10
2019-03-29T02:54:16.657Z,7.10
2019-03-29T02:56:49.423Z,7.10
2019-03-29T02:59:24.305Z,7.10
2019-03-29T03:01:58.049Z,7.10
2019-03-29T03:04:29.925Z,7.00
2019-03-29T03:07:01.122Z,7.10
2019-03-29T03:09:33.733Z,7.10
2019-03-29T03:12:05.097Z,7.10
2019-03-29T03:14:36.764Z,7.00
2019-03-29T03:17:09.139Z,7.00
2019-03-29T03:19:41.916Z,7.00
2019-03-29T03:22:14.442Z,7.00
2019-03-29T03:24:46.091Z,6.90
2019-03-29T03:27:17.346Z,6.90
2019-03-29T03:29:48.756Z,6.90
2019-03-29T03:32:21.853Z,6.80
2019-03-29T03:34:52.368Z,6.80
2019-03-29T03:37:22.153Z,6.80
2019-03-29T03:39:53.901Z,6.80
2019-03-29T03:42:26.473Z,6.80
2019-03-29T03:44:57.487Z,6.80
2019-03-29T03:47:30.388Z,6.80
2019-03-29T03:50:05.075Z,6.80
2019-03-29T03:52:36.170Z,6.70
2019-03-29T03:55:26.593Z,6.70
2019-03-29T03:57:58.815Z,6.60
2019-03-29T04:00:32.630Z,6.70
2019-03-29T04:03:05.467Z,6.70
2019-03-29T04:05:35.685Z,6.70
2019-03-29T04:08:07.170Z,6.60
2019-03-29T04:10:42.299Z,6.60
2019-03-29T04:13:16.512Z,6.60
2019-03-29T04:15:50.830Z,6.60
2019-03-29T04:18:25.477Z,6.60
2019-03-29T04:20:55.065Z,6.60
2019-03-29T04:23:25.724Z,6.60
2019-03-29T04:25:55.649Z,6.70
2019-03-29T04:28:29.513Z,6.70
2019-03-29T04:31:02.814Z,6.70
2019-03-29T04:33:35.164Z,6.80
2019-03-29T04:36:04.682Z,6.80
2019-03-29T04:38:35.342Z,6.90
2019-03-29T04:41:08.309Z,6.90
2019-03-29T04:43:39.947Z,7.00
2019-03-29T04:46:09.697Z,7.00
2019-03-29T04:48:40.783Z,7.00
2019-03-29T04:51:18.557Z,7.10
2019-03-29T04:53:50.418Z,7.10
2019-03-29T04:56:22.492Z,7.00
2019-03-29T04:58:54.776Z,7.10
2019-03-29T05:01:28.300Z,7.20
2019-03-29T05:04:02.285Z,7.20
2019-03-29T05:06:34.357Z,7.10
2019-03-29T05:09:09.532Z,7.10
2019-03-29T05:11:39.627Z,7.10
2019-03-29T05:14:12.933Z,7.20
2019-03-29T05:16:42.849Z,7.30
2019-03-29T05:19:14.966Z,7.20
2019-03-29T05:21:46.222Z,7.30
2019-03-29T05:24:16.485Z,7.40
2019-03-29T05:26:47.153Z,7.40
2019-03-29T05:29:18.275Z,7.30
2019-03-29T05:31:48.594Z,7.40
2019-03-29T05:34:20.403Z,7.40
2019-03-29T05:36:51.593Z,7.40
2019-03-29T05:39:21.344Z,7.40
2019-03-29T05:41:50.774Z,7.40
2019-03-29T05:44:21.017Z,7.50
2019-03-29T05:46:50.644Z,7.40
2019-03-29T05:49:22.425Z,7.50
2019-03-29T05:51:56.976Z,7.50
2019-03-29T05:54:27.108Z,7.50
2019-03-29T05:56:59.709Z,7.50
2019-03-29T05:59:32.352Z,7.60
2019-03-29T06:02:39.257Z,7.70
2019-03-29T06:05:11.729Z,7.80
2019-03-29T06:07:42.373Z,8.00
2019-03-29T06:10:15.043Z,8.20
2019-03-29T06:12:45.148Z,8.30
2019-03-29T06:15:15.465Z,8.30
2019-03-29T06:17:48.800Z,8.30
2019-03-29T06:20:24.270Z,8.40
2019-03-29T06:22:57.544Z,8.30
2019-03-29T06:25:27.898Z,8.30
2019-03-29T06:28:02.196Z,8.30
2019-03-29T06:30:33.236Z,8.20
2019-03-29T06:33:03.204Z,8.30
2019-03-29T06:35:37.206Z,8.20
2019-03-29T06:38:11.105Z,8.30
2019-03-29T06:40:43.100Z,8.30
2019-03-29T06:43:17.865Z,8.30
2019-03-29T06:45:50.316Z,8.30
2019-03-29T06:48:22.976Z,8.30
2019-03-29T06:50:56.462Z,8.30
2019-03-29T06:53:32.446Z,8.40
2019-03-29T06:56:04.052Z,8.40
2019-03-29T06:58:36.428Z,8.40
2019-03-29T07:01:09.123Z,8.40
2019-03-29T07:03:43.444Z,8.40
2019-03-29T07:06:14.859Z,8.40
2019-03-29T07:08:47.091Z,8.40
2019-03-29T07:11:19.593Z,8.40
2019-03-29T07:13:57.402Z,8.40
2019-03-29T07:16:24.031Z,8.40
2019-03-29T07:18:56.878Z,8.40
2019-03-29T07:21:30.780Z,8.40
2019-03-29T07:24:03.661Z,8.50
2019-03-29T07:26:37.661Z,8.50
2019-03-29T07:29:06.735Z,8.60
2019-03-29T07:31:37.846Z,8.60
2019-03-29T07:34:10.156Z,8.60
2019-03-29T07:36:41.616Z,8.60
2019-03-29T07:39:14.446Z,8.70
2019-03-29T07:41:47.255Z,8.90
2019-03-29T07:44:18.421Z,9.00
2019-03-29T07:46:49.325Z,9.10
2019-03-29T07:49:20.680Z,9.20
2019-03-29T07:51:51.313Z,9.20
2019-03-29T07:54:23.038Z,9.20
2019-03-29T07:56:59.004Z,9.20
2019-03-29T07:59:30.568Z,9.10
2019-03-29T08:02:02.310Z,9.10
2019-03-29T08:04:33.548Z,9.20
2019-03-29T08:07:06.252Z,9.20
2019-03-29T08:09:40.128Z,9.30
2019-03-29T08:12:17.234Z,9.30
2019-03-29T08:14:47.926Z,9.30
2019-03-29T08:17:20.938Z,9.30
2019-03-29T08:20:05.726Z,9.20
2019-03-29T08:22:25.480Z,9.30
2019-03-29T08:24:59.164Z,9.30
2019-03-29T08:27:30.288Z,9.30
2019-03-29T08:30:01.657Z,9.40
2019-03-29T08:32:35.781Z,9.30
2019-03-29T08:35:09.892Z,9.50
2019-03-29T08:37:43.620Z,9.60
2019-03-29T08:40:16.586Z,9.60
2019-03-29T08:42:51.823Z,9.70
2019-03-29T08:45:24.584Z,9.70
2019-03-29T08:47:57.769Z,9.60
2019-03-29T08:50:35.170Z,9.70
2019-03-29T08:53:07.814Z,9.80
2019-03-29T08:55:46.113Z,9.80
2019-03-29T08:58:15.119Z,10.10
2019-03-29T09:00:49.739Z,10.20
2019-03-29T09:03:23.600Z,10.40
2019-03-29T09:05:56.582Z,10.40
2019-03-29T09:08:27.529Z,10.50
2019-03-29T09:11:10.886Z,10.50
2019-03-29T09:13:43.007Z,10.60
2019-03-29T09:16:15.705Z,10.60
2019-03-29T09:18:48.325Z,10.60
2019-03-29T09:21:20.550Z,10.50
2019-03-29T09:23:52.887Z,10.60
2019-03-29T09:26:25.836Z,10.60
2019-03-29T09:28:58.952Z,10.60
2019-03-29T09:31:30.921Z,10.60
2019-03-29T09:34:02.914Z,10.70
2019-03-29T09:36:37.676Z,10.70
2019-03-29T09:39:10.668Z,10.70
2019-03-29T09:41:42.874Z,10.70
2019-03-29T09:44:13.544Z,10.70
2019-03-29T09:46:46.413Z,10.70
2019-03-29T09:49:18.664Z,10.70
2019-03-29T09:51:51.952Z,10.70
2019-03-29T09:54:24.971Z,10.80
2019-03-29T09:56:54.557Z,10.80
2019-03-29T09:59:23.948Z,10.80
2019-03-29T10:01:54.845Z,10.90
2019-03-29T10:04:24.235Z,10.80
2019-03-29T10:06:53.922Z,10.90
2019-03-29T10:09:24.260Z,11.00
2019-03-29T10:11:57.136Z,11.00
2019-03-29T10:14:33.440Z,11.10
2019-03-29T10:17:04.530Z,11.00
2019-03-29T10:19:35.345Z,11.20
2019-03-29T10:22:08.071Z,11.20
2019-03-29T10:24:40.791Z,11.10
2019-03-29T10:27:11.389Z,11.20
2019-03-29T10:29:42.451Z,11.20
2019-03-29T10:32:14.633Z,11.40
2019-03-29T10:34:47.317Z,11.40
2019-03-29T10:37:18.932Z,11.50
2019-03-29T10:39:52.172Z,11.50
2019-03-29T10:42:24.462Z,11.60
2019-03-29T10:44:56.264Z,11.60
2019-03-29T10:47:42.433Z,11.70
2019-03-29T10:50:00.634Z,11.80
2019-03-29T10:52:35.007Z,11.90
2019-03-29T10:55:09.750Z,11.80
2019-03-29T10:57:41.613Z,11.90
2019-03-29T11:00:16.077Z,11.90
2019-03-29T11:02:48.300Z,11.90
2019-03-29T11:05:22.703Z,12.00
2019-03-29T11:07:59.526Z,12.00
2019-03-29T11:10:35.777Z,11.90
2019-03-29T11:13:13.288Z,11.90
2019-03-29T11:15:43.275Z,12.00
2019-03-29T11:18:16.294Z,11.90
2019-03-29T11:20:50.100Z,11.90
2019-03-29T11:23:21.373Z,11.90
2019-03-29T11:25:53.910Z,11.80
2019-03-29T11:28:24.242Z,11.80
2019-03-29T11:30:54.400Z,11.80
2019-03-29T11:33:24.777Z,11.80
2019-03-29T11:35:54.301Z,12.00
2019-03-29T11:38:28.524Z,12.00
2019-03-29T11:41:04.176Z,12.10
2019-03-29T11:43:36.249Z,12.00
2019-03-29T11:46:06.873Z,12.00
2019-03-29T11:48:39.437Z,12.10
2019-03-29T11:51:19.178Z,12.10
2019-03-29T11:53:45.848Z,12.30
2019-03-29T11:56:16.377Z,12.40
2019-03-29T11:58:48.748Z,12.50
2019-03-29T12:01:19.132Z,12.50
2019-03-29T12:03:50.931Z,12.50
2019-03-29T12:06:24.777Z,12.50
2019-03-29T12:08:58.953Z,12.50
2019-03-29T12:11:32.371Z,12.60
2019-03-29T12:14:04.986Z,12.60
2019-03-29T12:16:40.216Z,12.60
2019-03-29T12:19:11.878Z,12.60
2019-03-29T12:21:42.364Z,12.70
2019-03-29T12:24:12.283Z,12.70
2019-03-29T12:26:46.768Z,12.70
2019-03-29T12:29:17.129Z,12.80
2019-03-29T12:31:48.836Z,12.80
2019-03-29T12:34:19.356Z,13.00
2019-03-29T12:36:51.015Z,13.00
2019-03-29T12:39:23.191Z,13.10
2019-03-29T12:41:55.061Z,13.20
2019-03-29T12:44:27.484Z,13.20
2019-03-29T12:46:57.352Z,13.20
2019-03-29T12:49:28.141Z,13.10
2019-03-29T12:51:58.906Z,13.10
2019-03-29T12:54:30.761Z,13.10
2019-03-29T12:57:07.013Z,13.10
2019-03-29T12:59:37.657Z,13.20
2019-03-29T13:02:06.780Z,13.20
2019-03-29T13:04:37.593Z,13.10
2019-03-29T13:07:06.585Z,13.20
2019-03-29T13:09:35.546Z,13.30
2019-03-29T13:12:07.646Z,13.30
2019-03-29T13:14:41.417Z,13.30
2019-03-29T13:17:11.589Z,13.30
2019-03-29T13:19:41.673Z,13.20
2019-03-29T13:22:12.436Z,13.20
2019-03-29T13:24:43.684Z,13.30
2019-03-29T13:27:16.630Z,13.30
2019-03-29T13:29:47.449Z,13.40
2019-03-29T13:32:17.200Z,13.50
2019-03-29T13:34:46.813Z,13.50
2019-03-29T13:37:16.501Z,13.50
2019-03-29T13:39:46.425Z,13.70
2019-03-29T13:42:20.850Z,13.90
2019-03-29T13:44:53.684Z,14.00
2019-03-29T13:47:25.656Z,14.00
2019-03-29T13:49:57.487Z,14.00
2019-03-29T13:52:31.665Z,14.10
2019-03-29T13:55:04.689Z,14.00
2019-03-29T13:57:34.496Z,14.10
2019-03-29T14:00:04.009Z,14.00
2019-03-29T14:02:35.116Z,13.90
2019-03-29T14:05:06.057Z,13.90
2019-03-29T14:07:36.207Z,13.90
2019-03-29T14:10:07.692Z,14.00
2019-03-29T14:12:39.898Z,14.00
2019-03-29T14:15:13.805Z,14.00
2019-03-29T14:17:45.487Z,14.00
2019-03-29T14:20:22.071Z,14.10
2019-03-29T14:22:54.248Z,14.00
2019-03-29T14:25:27.624Z,13.90
2019-03-29T14:27:59.305Z,13.80
2019-03-29T14:30:33.268Z,13.80
2019-03-29T14:33:05.598Z,13.90
2019-03-29T14:35:37.344Z,13.80
2019-03-29T14:38:08.982Z,13.90
2019-03-29T14:40:38.972Z,13.90
2019-03-29T14:43:09.263Z,14.00
2019-03-29T14:45:43.020Z,14.00
2019-03-29T14:48:15.625Z,14.00
2019-03-29T14:50:48.733Z,13.90
2019-03-29T14:53:21.487Z,13.80
2019-03-29T14:55:52.181Z,14.00
2019-03-29T14:58:25.292Z,14.00
2019-03-29T15:00:59.016Z,13.90
2019-03-29T15:03:30.763Z,13.80
2019-03-29T15:06:04.009Z,13.90
2019-03-29T15:08:34.319Z,14.00
2019-03-29T15:11:05.758Z,14.00
2019-03-29T15:13:39.029Z,14.10
2019-03-29T15:16:10.177Z,14.00
2019-03-29T15:18:41.850Z,14.00
2019-03-29T15:21:14.517Z,14.10
2019-03-29T15:23:45.756Z,14.00
2019-03-29T15:26:19.626Z,14.00
2019-03-29T15:28:51.336Z,13.90
2019-03-29T15:31:21.912Z,13.90
2019-03-29T15:33:55.507Z,13.90
2019-03-29T15:36:27.284Z,13.90
2019-03-29T15:39:00.025Z,13.80
2019-03-29T15:41:32.840Z,13.80
2019-03-29T15:44:07.998Z,13.90
2019-03-29T15:46:38.089Z,13.90
2019-03-29T15:49:10.768Z,13.90
2019-03-29T15:51:42.764Z,13.90
2019-03-29T15:54:15.401Z,13.80
2019-03-29T15:56:47.286Z,13.70
2019-03-29T15:59:20.462Z,13.60
2019-03-29T16:01:53.226Z,13.40
2019-03-29T16:04:27.652Z,13.40
2019-03-29T16:06:59.726Z,13.40
2019-03-29T16:09:34.385Z,13.50
2019-03-29T16:12:06.882Z,13.60
2019-03-29T16:14:39.022Z,13.50
2019-03-29T16:17:11.115Z,13.40
2019-03-29T16:19:40.745Z,13.50
2019-03-29T16:22:11.533Z,13.30
2019-03-29T16:24:42.362Z,13.30
2019-03-29T16:27:15.623Z,13.30
2019-03-29T16:29:51.762Z,13.20
2019-03-29T16:32:24.965Z,13.10
2019-03-29T16:34:58.665Z,12.80
2019-03-29T16:37:35.744Z,12.60
2019-03-29T16:40:07.307Z,12.40
2019-03-29T16:42:37.098Z,12.40
2019-03-29T16:45:09.625Z,12.40
2019-03-29T16:47:43.817Z,12.30
2019-03-29T16:50:15.692Z,12.30
2019-03-29T16:52:49.701Z,12.10
2019-03-29T16:55:21.675Z,12.00
2019-03-29T16:57:55.400Z,11.90
2019-03-29T17:00:27.688Z,11.80
2019-03-29T17:03:01.001Z,11.70
2019-03-29T17:05:34.293Z,11.50
2019-03-29T17:08:05.812Z,11.30
2019-03-29T17:10:38.637Z,11.30
2019-03-29T17:13:11.473Z,11.40
2019-03-29T17:15:44.340Z,11.30
2019-03-29T17:18:23.729Z,11.20
2019-03-29T17:20:45.784Z,11.20
2019-03-29T17:23:19.561Z,11.20
2019-03-29T17:25:55.884Z,11.20
2019-03-29T17:28:27.601Z,11.10
2019-03-29T17:31:00.475Z,10.90
2019-03-29T17:33:30.836Z,10.80
2019-03-29T17:36:00.908Z,10.80
2019-03-29T17:38:31.779Z,10.80
2019-03-29T17:41:01.788Z,10.70
2019-03-29T17:43:30.805Z,10.60
2019-03-29T17:46:14.945Z,10.60
2019-03-29T17:48:36.447Z,10.50
2019-03-29T17:51:07.734Z,10.50
2019-03-29T17:53:37.152Z,10.40
2019-03-29T17:56:09.401Z,10.40
2019-03-29T17:58:41.545Z,10.20
2019-03-29T18:01:13.131Z,10.20
2019-03-29T18:03:46.469Z,10.30
2019-03-29T18:06:21.292Z,10.10
2019-03-29T18:08:52.785Z,10.10
2019-03-29T18:11:26.037Z,10.00
2019-03-29T18:14:00.267Z,9.90
2019-03-29T18:16:33.993Z,10.00
2019-03-29T18:19:10.000Z,9.80
2019-03-29T18:21:41.750Z,9.80
2019-03-29T18:24:12.766Z,9.80
2019-03-29T18:26:45.524Z,9.90
2019-03-29T18:29:18.625Z,9.80
2019-03-29T18:31:52.430Z,9.70
2019-03-29T18:34:27.084Z,9.70
2019-03-29T18:36:59.823Z,9.60
2019-03-29T18:39:33.678Z,9.60
2019-03-29T18:42:04.867Z,9.50
2019-03-29T18:44:37.081Z,9.40
2019-03-29T18:47:11.636Z,9.50
2019-03-29T18:49:42.051Z,9.40
2019-03-29T18:52:11.924Z,9.40
2019-03-29T18:54:41.528Z,9.30
2019-03-29T18:57:14.937Z,9.30
2019-03-29T18:59:45.390Z,9.20
2019-03-29T19:02:19.896Z,9.20
2019-03-29T19:04:51.874Z,9.10
2019-03-29T19:07:26.858Z,9.00
2019-03-29T19:09:59.177Z,9.00
2019-03-29T19:12:31.328Z,8.90
2019-03-29T19:15:01.636Z,9.00
2019-03-29T19:17:34.256Z,8.90
2019-03-29T19:20:10.413Z,8.90
2019-03-29T19:22:41.310Z,8.90
2019-03-29T19:25:12.876Z,8.80
2019-03-29T19:27:44.142Z,8.80
2019-03-29T19:30:17.221Z,8.70
2019-03-29T19:32:48.682Z,8.70
2019-03-29T19:35:20.309Z,8.60
2019-03-29T19:37:52.521Z,8.50
2019-03-29T19:40:28.043Z,8.50
2019-03-29T19:43:00.135Z,8.50
2019-03-29T19:45:34.559Z,8.50
2019-03-29T19:48:05.898Z,8.40
2019-03-29T19:50:38.449Z,8.30
2019-03-29T19:53:09.145Z,8.30
2019-03-29T19:55:41.422Z,8.20
2019-03-29T19:58:17.993Z,8.20
2019-03-29T20:00:50.216Z,8.10
2019-03-29T20:03:21.552Z,8.10
2019-03-29T20:05:56.300Z,8.00
2019-03-29T20:08:28.392Z,8.00
2019-03-29T20:11:01.272Z,7.90
2019-03-29T20:13:39.931Z,8.00
2019-03-29T20:16:11.741Z,8.00
2019-03-29T20:18:46.956Z,8.00
2019-03-29T20:21:20.229Z,7.90
2019-03-29T20:23:52.594Z,7.90
2019-03-29T20:26:24.837Z,7.90
2019-03-29T20:28:55.630Z,7.80
2019-03-29T20:31:29.502Z,7.70
2019-03-29T20:34:00.786Z,7.70
2019-03-29T20:36:32.265Z,7.70
2019-03-29T20:39:03.612Z,7.60
2019-03-29T20:41:35.757Z,7.60
2019-03-29T20:44:07.461Z,7.60
2019-03-29T20:46:37.833Z,7.50
2019-03-29T20:49:08.009Z,7.60
2019-03-29T20:51:40.520Z,7.50
2019-03-29T20:54:15.860Z,7.40
2019-03-29T20:56:50.754Z,7.30
2019-03-29T20:59:25.652Z,7.30
2019-03-29T21:01:59.806Z,7.30
2019-03-29T21:04:33.317Z,7.30
2019-03-29T21:07:05.093Z,7.30
2019-03-29T21:09:39.591Z,7.20
2019-03-29T21:12:10.897Z,7.20
2019-03-29T21:14:42.552Z,7.10
2019-03-29T21:17:14.071Z,7.10
2019-03-29T21:19:47.245Z,7.00
2019-03-29T21:22:19.195Z,7.10
2019-03-29T21:24:50.260Z,7.10
2019-03-29T21:27:20.805Z,7.10
2019-03-29T21:29:52.873Z,7.10
2019-03-29T21:32:23.726Z,7.00
2019-03-29T21:34:58.099Z,6.90
2019-03-29T21:37:29.141Z,6.80
2019-03-29T21:40:04.236Z,6.80
2019-03-29T21:42:35.798Z,6.70
2019-03-29T21:45:08.625Z,6.80
2019-03-29T21:47:39.112Z,6.80
2019-03-29T21:50:09.555Z,6.80
2019-03-29T21:52:40.036Z,6.80
2019-03-29T21:55:15.723Z,6.80
2019-03-29T21:57:49.413Z,6.70
2019-03-29T22:00:21.241Z,6.70
2019-03-29T22:02:50.956Z,6.70
2019-03-29T22:05:28.463Z,6.70
2019-03-29T22:08:00.618Z,6.70
2019-03-29T22:10:33.140Z,6.60
2019-03-29T22:13:07.801Z,6.60
2019-03-29T22:15:42.869Z,6.60
2019-03-29T22:18:13.157Z,6.60
2019-03-29T22:20:42.336Z,6.60
2019-03-29T22:23:11.729Z,6.60
2019-03-29T22:25:44.464Z,6.60
2019-03-29T22:28:14.921Z,6.50
2019-03-29T22:30:46.201Z,6.50
2019-03-29T22:33:19.092Z,6.60
2019-03-29T22:35:51.095Z,6.50
2019-03-29T22:38:24.334Z,6.60
2019-03-29T22:40:58.218Z,6.50
2019-03-29T22:43:30.456Z,6.50
2019-03-29T22:46:06.563Z,6.40
2019-03-29T22:48:51.609Z,6.40
2019-03-29T22:51:15.685Z,6.30
2019-03-29T22:53:45.770Z,6.30
2019-03-29T22:56:18.722Z,6.30
2019-03-29T22:58:48.534Z,6.30
2019-03-29T23:01:18.504Z,6.20
2019-03-29T23:03:48.629Z,6.30
2019-03-29T23:06:19.212Z,6.30
2019-03-29T23:08:52.866Z,6.30
2019-03-29T23:11:25.757Z,6.20
2019-03-29T23:13:55.405Z,6.20
2019-03-29T23:16:24.764Z,6.20
2019-03-29T23:19:05.879Z,6.10
2019-03-29T23:21:29.416Z,6.20
2019-03-29T23:23:59.274Z,6.00
2019-03-29T23:26:29.508Z,6.10
2019-03-29T23:28:58.881Z,6.10
2019-03-29T23:31:31.209Z,6.10
2019-03-29T23:34:00.715Z,6.10
2019-03-29T23:36:31.976Z,6.00
2019-03-29T23:39:06.935Z,6.00
2019-03-29T23:41:39.544Z,6.00
2019-03-29T23:44:09.588Z,6.00
2019-03-29T23:46:47.301Z,5.90
2019-03-29T23:49:21.483Z,5.90
2019-03-29T23:51:53.637Z,5.90
2019-03-29T23:54:26.976Z,5.80
2019-03-29T23:57:00.234Z,5.90
2019-03-29T23:59:30.821Z,5.80
